CA-0443 weather

Brier Island Airstrip
Westport, Nova Scotia, Canada

Public forecast

Using degrees Celsius for public forecast. Weather courtesy of forecast.io.

METAR (pilot weather report)

Closest report is Yarmouth Airport, 28.4 nm (52.5 km) SSE. Retrieved 2019/08/19 12:26 UTC (33 minutes ago):

CYQI 191226Z 17004KT 1/2SM FG VV003 18/18 A3002 RMK FG8 SLP166 DENSITY ALT 500FT

TAF (pilot weather forecast)

Closest forecast is Yarmouth Airport, 28.4 nm (52.5 km) SSE. Retrieved 2019/08/19 12:39 UTC (20 minutes ago):

TAF CYQI 191138Z 1912/1924 18005KT 1/8SM FG VV002 TEMPO 1912/1915 3SM BR OVC005 FM191500 19010KT 6SM BR BKN005 TEMPO 1915/1922 2SM BR OVC003 FM192200 20008KT 1/4SM -DZ FG VV001 RMK NXT FCST BY 191800Z